Time;durP1;ratioP1;P1;durP2;ratioP2;P2;SDS_P1;SDS_P2;PMS_P1;PMS_P2;Temp;Humidity;BMP_temperature;BMP_pressure;BME280_temperature;BME280_humidity;BME280_pressure;Samples;Min_cycle;Max_cycle;Signal;HPM_P1;HPM_P2
2021/08/30 00:00:06;;;;;;;2.90;2.40;;;13.10;99.90;;;;;;5004359;28;20031;-81
2021/08/30 00:02:32;;;;;;;2.95;2.60;;;13.10;99.90;;;;;;5010284;28;20033;-81
2021/08/30 00:04:57;;;;;;;3.03;2.47;;;13.10;99.90;;;;;;5014698;28;20321;-81
2021/08/30 00:07:24;;;;;;;3.50;2.60;;;13.10;99.90;;;;;;5034103;28;20065;-81
2021/08/30 00:09:51;;;;;;;2.80;2.20;;;13.10;99.90;;;;;;5010814;28;20541;-81
2021/08/30 00:12:16;;;;;;;2.85;2.38;;;13.10;99.90;;;;;;5007896;28;20533;-81
2021/08/30 00:14:42;;;;;;;2.95;2.65;;;13.10;99.90;;;;;;5028201;28;20154;-81
2021/08/30 00:17:08;;;;;;;2.95;2.65;;;13.00;99.90;;;;;;5026160;28;20617;-81
2021/08/30 00:19:34;;;;;;;2.30;2.10;;;13.00;99.90;;;;;;5032033;28;20458;-81
2021/08/30 00:22:02;;;;;;;2.63;2.42;;;13.00;99.90;;;;;;5051561;28;20031;-81
2021/08/30 00:24:27;;;;;;;6.32;2.17;;;13.10;99.90;;;;;;5017269;28;20071;-81
2021/08/30 00:26:54;;;;;;;2.60;2.15;;;13.10;99.90;;;;;;5026824;28;20037;-81
2021/08/30 00:29:26;;;;;;;2.90;2.47;;;13.00;99.90;;;;;;5011172;28;20032;-81
2021/08/30 00:31:57;;;;;;;2.60;2.40;;;13.00;99.90;;;;;;5015731;28;20032;-81
2021/08/30 00:34:23;;;;;;;3.50;2.38;;;13.00;99.90;;;;;;5017346;28;20052;-81
2021/08/30 00:36:49;;;;;;;2.72;2.42;;;13.00;99.90;;;;;;5033844;28;20025;-81
2021/08/30 00:39:23;;;;;;;3.65;2.60;;;13.00;99.90;;;;;;5016657;28;20402;-81
2021/08/30 00:41:51;;;;;;;5.00;3.33;;;13.00;99.90;;;;;;5028598;28;20112;-81
2021/08/30 00:44:17;;;;;;;5.00;3.33;;;13.00;99.90;;;;;;5036165;28;20081;-81
2021/08/30 00:46:43;;;;;;;3.95;3.08;;;13.00;99.90;;;;;;5013558;28;20025;-81
2021/08/30 00:49:08;;;;;;;3.85;2.83;;;13.00;99.90;;;;;;5033064;28;20398;-81
2021/08/30 00:51:35;;;;;;;6.25;3.50;;;13.00;99.90;;;;;;5012254;28;20032;-81
2021/08/30 00:54:01;;;;;;;4.55;3.72;;;13.00;99.90;;;;;;5010035;28;20040;-81
2021/08/30 00:56:27;;;;;;;4.75;3.15;;;13.00;99.90;;;;;;5033664;28;20383;-81
2021/08/30 00:58:53;;;;;;;3.65;2.70;;;13.00;99.90;;;;;;5012190;28;20029;-81
2021/08/30 01:01:19;;;;;;;5.85;3.90;;;13.00;99.90;;;;;;5012651;28;20043;-81
2021/08/30 01:03:45;;;;;;;5.10;3.50;;;13.00;99.90;;;;;;5024542;28;20051;-81
2021/08/30 01:06:42;;;;;;;4.07;3.03;;;13.00;99.90;;;;;;5017486;28;20026;-82
2021/08/30 01:09:33;;;;;;;3.38;2.72;;;13.00;99.90;;;;;;5016949;28;20490;-81
2021/08/30 01:12:16;;;;;;;3.60;2.70;;;13.00;99.90;;;;;;5026264;28;20026;-82
2021/08/30 01:15:04;;;;;;;4.00;2.90;;;13.10;99.90;;;;;;5011609;28;20032;-82
2021/08/30 01:17:35;;;;;;;3.55;2.65;;;13.10;99.90;;;;;;4990519;28;20022;-82
2021/08/30 01:20:42;;;;;;;3.50;2.63;;;13.00;99.90;;;;;;5047991;28;20028;-81
2021/08/30 01:23:09;;;;;;;3.05;2.40;;;13.10;99.90;;;;;;5014558;28;20612;-81
2021/08/30 01:25:36;;;;;;;3.70;2.72;;;13.10;99.90;;;;;;5048831;28;20032;-81
2021/08/30 01:28:03;;;;;;;3.33;2.63;;;13.10;99.90;;;;;;5033459;28;20418;-81
2021/08/30 01:30:31;;;;;;;4.95;2.72;;;13.10;99.90;;;;;;4980613;28;20025;-81
2021/08/30 01:33:00;;;;;;;2.78;2.00;;;13.10;99.90;;;;;;5028158;28;20036;-82
2021/08/30 01:35:29;;;;;;;3.20;2.50;;;13.00;99.90;;;;;;5013427;28;20033;-82
2021/08/30 01:38:00;;;;;;;2.35;2.03;;;13.00;99.90;;;;;;4997761;28;20469;-81
2021/08/30 01:40:28;;;;;;;4.43;2.45;;;13.00;99.90;;;;;;5003875;28;20043;-82
2021/08/30 01:42:57;;;;;;;3.80;2.08;;;13.00;99.90;;;;;;5047340;28;20033;-81
2021/08/30 01:45:25;;;;;;;2.40;2.20;;;13.10;99.90;;;;;;5013575;28;20091;-81
2021/08/30 01:47:54;;;;;;;2.20;2.00;;;13.10;99.90;;;;;;5018838;28;20108;-81
2021/08/30 01:50:22;;;;;;;3.47;2.15;;;13.00;99.90;;;;;;5047667;28;20033;-81
2021/08/30 01:52:50;;;;;;;1.75;1.65;;;13.10;99.90;;;;;;5032036;28;20037;-81
2021/08/30 02:00:52;;;;;;;1.27;1.17;;;13.00;99.90;;;;;;5012111;28;20440;-80
2021/08/30 02:03:29;;;;;;;1.02;1.00;;;13.00;99.90;;;;;;5016522;28;20044;-81
2021/08/30 02:05:56;;;;;;;1.13;1.02;;;13.00;99.90;;;;;;5029078;28;20025;-80
2021/08/30 02:08:24;;;;;;;1.30;1.20;;;13.00;99.90;;;;;;5019382;28;20025;-81
2021/08/30 02:10:55;;;;;;;1.23;1.00;;;13.00;99.90;;;;;;5013083;28;20542;-80
2021/08/30 02:13:26;;;;;;;1.58;1.27;;;13.00;99.90;;;;;;5048619;28;20113;-81
2021/08/30 02:15:52;;;;;;;1.45;1.10;;;13.00;99.90;;;;;;5015453;28;20127;-81
2021/08/30 02:18:46;;;;;;;1.80;1.50;;;13.00;99.90;;;;;;5016454;28;20069;-81
2021/08/30 02:21:20;;;;;;;1.30;1.20;;;13.00;99.90;;;;;;5030980;28;20037;-80
2021/08/30 02:24:12;;;;;;;1.80;1.27;;;13.00;99.90;;;;;;5050275;28;20075;-82
2021/08/30 02:27:16;;;;;;;1.20;1.10;;;13.00;99.90;;;;;;5023666;28;20110;-81
2021/08/30 02:30:06;;;;;;;1.92;1.38;;;13.00;99.90;;;;;;5042062;28;20039;-82
2021/08/30 02:32:33;;;;;;;2.25;1.92;;;13.00;99.90;;;;;;5026710;28;20053;-81
2021/08/30 02:35:01;;;;;;;2.55;2.08;;;13.00;99.90;;;;;;5013342;28;20032;-81
2021/08/30 02:37:30;;;;;;;2.63;2.40;;;13.00;99.90;;;;;;5033844;28;20025;-82
2021/08/30 02:39:58;;;;;;;4.75;2.85;;;13.00;99.90;;;;;;5051294;28;20071;-81
2021/08/30 02:42:24;;;;;;;3.33;2.60;;;13.00;99.90;;;;;;5036561;28;20549;-81
2021/08/30 02:44:50;;;;;;;2.55;2.30;;;13.00;99.90;;;;;;5030564;28;20025;-81
2021/08/30 02:47:18;;;;;;;4.53;3.20;;;13.00;99.90;;;;;;5035713;28;20029;-81
2021/08/30 02:49:46;;;;;;;5.22;3.55;;;13.00;99.90;;;;;;5033459;28;20036;-82
2021/08/30 02:52:14;;;;;;;4.30;2.88;;;13.00;99.90;;;;;;5012620;28;20072;-82
2021/08/30 02:54:43;;;;;;;3.90;2.85;;;13.00;99.90;;;;;;5011549;28;20033;-81
2021/08/30 02:57:10;;;;;;;2.75;2.47;;;13.00;99.90;;;;;;5014074;28;20427;-81
2021/08/30 02:59:36;;;;;;;3.80;3.15;;;13.00;99.90;;;;;;5026150;28;20033;-82
2021/08/30 03:02:03;;;;;;;3.70;2.40;;;13.00;99.90;;;;;;5028060;28;20034;-81
2021/08/30 03:04:32;;;;;;;8.80;3.53;;;13.00;99.90;;;;;;5014535;28;20033;-82
2021/08/30 03:06:59;;;;;;;4.45;3.40;;;13.00;99.90;;;;;;5025092;28;20059;-82
2021/08/30 03:09:25;;;;;;;4.38;3.30;;;13.00;99.90;;;;;;5015302;28;20029;-82
2021/08/30 03:11:53;;;;;;;3.67;3.10;;;13.00;99.90;;;;;;5014075;28;20040;-82
2021/08/30 03:14:23;;;;;;;3.40;2.55;;;13.00;99.90;;;;;;5029625;28;20479;-82
2021/08/30 03:16:50;;;;;;;3.65;2.90;;;13.00;99.90;;;;;;5020554;28;20026;-82
2021/08/30 03:19:17;;;;;;;3.97;2.55;;;12.90;99.90;;;;;;5044344;28;20065;-82
2021/08/30 03:21:44;;;;;;;3.38;2.60;;;13.00;99.90;;;;;;5015284;28;20029;-82
2021/08/30 03:24:12;;;;;;;4.05;3.10;;;12.90;99.90;;;;;;5019620;28;20037;-82
2021/08/30 03:26:39;;;;;;;3.38;2.63;;;12.90;99.90;;;;;;5011871;28;20063;-82
2021/08/30 03:29:07;;;;;;;4.63;3.10;;;12.90;99.90;;;;;;5034604;28;20045;-82
2021/08/30 03:31:34;;;;;;;3.95;2.85;;;12.90;99.90;;;;;;5043797;28;20017;-82
2021/08/30 03:34:01;;;;;;;2.55;2.13;;;12.90;99.90;;;;;;5016078;28;20040;-82
2021/08/30 03:36:28;;;;;;;2.97;2.50;;;12.90;99.90;;;;;;5016524;28;20392;-82
2021/08/30 03:38:56;;;;;;;3.08;2.63;;;12.90;99.90;;;;;;5034285;28;20037;-81
2021/08/30 03:41:24;;;;;;;3.25;2.33;;;12.90;99.90;;;;;;5016457;28;20036;-82
2021/08/30 03:43:50;;;;;;;3.97;2.58;;;12.90;99.90;;;;;;5019211;28;20434;-82
2021/08/30 03:46:16;;;;;;;3.70;2.60;;;12.90;99.90;;;;;;5020810;28;20483;-82
2021/08/30 03:48:43;;;;;;;2.92;2.40;;;12.90;99.90;;;;;;5034551;28;20032;-82
2021/08/30 03:51:10;;;;;;;2.90;2.35;;;12.80;99.90;;;;;;5004024;28;20033;-82
2021/08/30 03:53:38;;;;;;;4.13;2.80;;;12.80;99.90;;;;;;5023690;28;20034;-83
2021/08/30 03:56:05;;;;;;;3.80;2.30;;;12.80;99.90;;;;;;5010326;28;20025;-82
2021/08/30 03:58:33;;;;;;;3.53;2.53;;;12.80;99.90;;;;;;5017135;28;20037;-82
2021/08/30 04:01:04;;;;;;;4.07;2.00;;;12.80;99.90;;;;;;5013657;28;20057;-82
2021/08/30 04:03:34;;;;;;;2.78;2.17;;;12.80;99.90;;;;;;5013862;28;20033;-82
2021/08/30 04:06:01;;;;;;;3.10;2.38;;;12.80;99.90;;;;;;5031704;28;20067;-82
2021/08/30 04:08:29;;;;;;;3.03;1.90;;;12.80;99.90;;;;;;5017624;28;20398;-83
2021/08/30 04:10:55;;;;;;;2.17;1.80;;;12.80;99.90;;;;;;5007604;28;20078;-83
2021/08/30 04:13:22;;;;;;;3.25;2.22;;;12.70;99.90;;;;;;5021560;28;20050;-83
2021/08/30 04:15:47;;;;;;;2.17;1.98;;;12.70;99.90;;;;;;5013156;28;20108;-83
2021/08/30 04:18:13;;;;;;;4.10;1.80;;;12.70;99.90;;;;;;4983381;28;20824;-83
2021/08/30 04:20:39;;;;;;;2.42;1.60;;;12.70;99.90;;;;;;5003949;23;20403;-86
2021/08/30 04:23:04;;;;;;;4.13;1.85;;;12.70;99.90;;;;;;5014735;28;20042;-86
2021/08/30 04:25:30;;;;;;;2.00;1.52;;;12.70;99.90;;;;;;5006791;28;20087;-87
2021/08/30 04:27:56;;;;;;;2.47;1.83;;;12.80;99.90;;;;;;4995523;28;20033;-87
2021/08/30 04:30:21;;;;;;;3.70;1.75;;;12.80;99.90;;;;;;4995577;28;20633;-87
2021/08/30 04:32:47;;;;;;;1.85;1.48;;;12.70;99.90;;;;;;4985883;28;20411;-87
2021/08/30 04:35:14;;;;;;;2.00;1.70;;;12.80;99.90;;;;;;5021720;28;20332;-87
2021/08/30 04:37:39;;;;;;;3.10;1.50;;;12.70;99.90;;;;;;4997501;28;20034;-87
2021/08/30 04:40:06;;;;;;;1.52;1.42;;;12.70;99.90;;;;;;4995839;28;20048;-87
2021/08/30 04:42:32;;;;;;;1.60;1.50;;;12.80;99.90;;;;;;4979089;28;20030;-87
2021/08/30 04:44:58;;;;;;;2.30;1.50;;;12.80;99.90;;;;;;4978314;28;20057;-87
2021/08/30 04:47:23;;;;;;;2.03;1.70;;;12.80;99.90;;;;;;4997142;28;20477;-87
2021/08/30 04:49:49;;;;;;;2.78;1.50;;;12.80;99.90;;;;;;5028835;28;20021;-87
2021/08/30 04:52:15;;;;;;;1.77;1.60;;;12.80;99.90;;;;;;4973832;28;20045;-86
2021/08/30 04:54:41;;;;;;;1.58;1.48;;;12.80;99.90;;;;;;4993164;28;20113;-87
2021/08/30 04:57:06;;;;;;;1.73;1.60;;;12.90;99.90;;;;;;4997309;28;20344;-87
2021/08/30 04:59:32;;;;;;;1.48;1.38;;;12.90;99.90;;;;;;5014348;28;20036;-87
2021/08/30 05:01:58;;;;;;;1.35;1.17;;;12.90;99.90;;;;;;5012075;28;20071;-87
2021/08/30 05:04:23;;;;;;;2.05;1.33;;;12.90;99.90;;;;;;4996823;28;20041;-86
2021/08/30 05:06:49;;;;;;;1.58;1.45;;;12.90;99.90;;;;;;4996587;28;20041;-87
2021/08/30 05:09:15;;;;;;;1.60;1.50;;;12.90;99.90;;;;;;4987916;28;20034;-87
2021/08/30 05:11:40;;;;;;;1.50;1.30;;;12.90;99.90;;;;;;4993240;28;20029;-87
2021/08/30 05:14:06;;;;;;;1.23;1.13;;;13.00;99.90;;;;;;4980214;28;20037;-87
2021/08/30 05:16:32;;;;;;;1.60;1.40;;;13.00;99.90;;;;;;4987133;28;20124;-87
2021/08/30 05:18:57;;;;;;;1.30;1.20;;;13.00;99.90;;;;;;5012923;28;20479;-87
2021/08/30 05:21:23;;;;;;;1.60;1.50;;;13.10;99.90;;;;;;4994182;28;20129;-87
2021/08/30 05:23:49;;;;;;;1.42;1.33;;;13.00;99.90;;;;;;4979560;28;20479;-87
2021/08/30 05:26:15;;;;;;;1.83;1.52;;;13.00;99.90;;;;;;5010873;28;20396;-87
2021/08/30 05:28:41;;;;;;;3.85;1.35;;;13.00;99.90;;;;;;5012828;28;20037;-87
2021/08/30 05:31:06;;;;;;;3.55;2.00;;;13.00;99.90;;;;;;4988956;28;20411;-87
2021/08/30 05:33:32;;;;;;;1.83;1.65;;;13.00;99.90;;;;;;5027335;28;20037;-87
2021/08/30 05:35:59;;;;;;;2.08;1.88;;;13.00;99.90;;;;;;5012744;28;20030;-87
2021/08/30 05:38:24;;;;;;;2.05;1.52;;;13.00;99.90;;;;;;5016369;28;20519;-87
2021/08/30 05:40:50;;;;;;;1.92;1.60;;;13.00;99.90;;;;;;5013070;28;20041;-88
2021/08/30 05:43:16;;;;;;;2.42;1.92;;;13.00;99.90;;;;;;5022198;28;20388;-87
2021/08/30 05:45:42;;;;;;;2.35;1.52;;;13.00;99.90;;;;;;5009499;28;20029;-87
2021/08/30 05:48:07;;;;;;;5.72;2.25;;;12.90;99.90;;;;;;5011923;28;20037;-87
2021/08/30 05:50:33;;;;;;;2.92;2.33;;;12.90;99.90;;;;;;4991838;28;20041;-87
2021/08/30 05:52:59;;;;;;;2.85;2.53;;;12.90;99.90;;;;;;4996519;28;20116;-87
2021/08/30 05:55:25;;;;;;;3.55;2.70;;;13.00;99.90;;;;;;5006408;28;20502;-88
2021/08/30 05:57:50;;;;;;;5.00;2.60;;;13.00;99.90;;;;;;5012585;28;20026;-88
2021/08/30 06:00:16;;;;;;;3.80;2.70;;;13.00;99.90;;;;;;4994183;28;20373;-87
2021/08/30 06:02:42;;;;;;;3.08;2.70;;;13.00;99.90;;;;;;4995320;28;20029;-87
2021/08/30 06:05:08;;;;;;;3.67;2.90;;;13.10;99.90;;;;;;5012261;28;20048;-87
2021/08/30 06:07:34;;;;;;;3.58;2.78;;;13.10;99.90;;;;;;4979947;28;20045;-87
2021/08/30 06:10:00;;;;;;;3.05;2.70;;;13.10;99.90;;;;;;5007664;28;20026;-87
2021/08/30 06:12:25;;;;;;;3.30;2.90;;;13.20;99.90;;;;;;5013428;28;20030;-87
2021/08/30 06:14:51;;;;;;;3.92;2.80;;;13.20;99.90;;;;;;4999303;28;20028;-88
2021/08/30 06:17:17;;;;;;;4.80;3.10;;;13.30;99.90;;;;;;5011752;28;20041;-88
2021/08/30 06:19:42;;;;;;;4.38;3.55;;;13.40;99.90;;;;;;5015258;28;20399;-88
2021/08/30 06:22:09;;;;;;;4.28;3.03;;;13.40;99.90;;;;;;4997682;28;20029;-88
2021/08/30 06:24:40;;;;;;;4.38;3.30;;;13.50;99.90;;;;;;4987834;28;20030;-88
2021/08/30 06:27:06;;;;;;;3.25;2.72;;;13.50;99.90;;;;;;5013696;28;20073;-88
2021/08/30 06:29:32;;;;;;;4.35;3.08;;;13.50;99.90;;;;;;4982840;28;20033;-87
2021/08/30 06:31:59;;;;;;;3.80;3.17;;;13.50;99.90;;;;;;5000432;28;20479;-88
2021/08/30 06:34:26;;;;;;;3.45;2.88;;;13.60;99.90;;;;;;5003473;28;20064;-88
2021/08/30 06:36:52;;;;;;;3.67;2.70;;;13.60;99.90;;;;;;4996383;28;20475;-87
2021/08/30 06:39:18;;;;;;;3.55;2.88;;;13.60;99.90;;;;;;5015007;28;20407;-88
2021/08/30 06:41:44;;;;;;;3.42;2.60;;;13.60;99.90;;;;;;4997527;28;20053;-88
2021/08/30 06:44:10;;;;;;;2.83;2.45;;;13.60;99.90;;;;;;4983451;28;20168;-88
2021/08/30 06:46:36;;;;;;;3.00;2.15;;;13.50;99.90;;;;;;5015900;28;20058;-87
2021/08/30 06:49:02;;;;;;;3.95;3.10;;;13.50;99.90;;;;;;5015451;28;20083;-88
2021/08/30 06:51:28;;;;;;;3.28;2.50;;;13.50;99.90;;;;;;5010082;28;20117;-88
2021/08/30 06:53:54;;;;;;;4.38;2.90;;;13.50;99.90;;;;;;4998619;28;20034;-87
2021/08/30 06:56:20;;;;;;;3.30;2.45;;;13.50;99.90;;;;;;5013222;28;20033;-88
2021/08/30 06:58:45;;;;;;;3.58;2.50;;;13.50;99.90;;;;;;5015703;28;20060;-87
2021/08/30 07:01:11;;;;;;;3.85;3.13;;;13.50;99.90;;;;;;5011807;28;20112;-88
2021/08/30 07:03:37;;;;;;;3.10;2.58;;;13.60;99.90;;;;;;4982915;28;20034;-88
2021/08/30 07:06:03;;;;;;;3.40;2.45;;;13.70;99.90;;;;;;4998669;28;20491;-88
2021/08/30 07:08:28;;;;;;;2.72;2.50;;;13.80;99.90;;;;;;4998914;28;20562;-88
2021/08/30 07:10:54;;;;;;;2.60;2.30;;;13.90;99.90;;;;;;5010368;23;20124;-80
2021/08/30 07:13:20;;;;;;;3.08;2.80;;;13.90;99.90;;;;;;5018489;28;20038;-81
2021/08/30 07:15:48;;;;;;;3.15;2.40;;;14.00;99.90;;;;;;4998486;28;20018;-81
2021/08/30 07:18:15;;;;;;;2.97;2.30;;;14.00;99.90;;;;;;4996970;28;20034;-81
2021/08/30 07:20:41;;;;;;;2.47;2.20;;;14.00;99.90;;;;;;5016258;28;20088;-80
2021/08/30 07:23:07;;;;;;;2.88;2.58;;;14.10;99.90;;;;;;5010057;28;20479;-81
2021/08/30 07:25:32;;;;;;;2.80;2.40;;;14.10;99.90;;;;;;4987433;28;20030;-81
2021/08/30 07:27:58;;;;;;;3.30;2.75;;;14.20;99.90;;;;;;4996317;28;20029;-81
2021/08/30 07:30:24;;;;;;;3.08;2.60;;;14.10;99.90;;;;;;5002874;28;20502;-81
2021/08/30 07:32:49;;;;;;;3.03;2.30;;;14.20;99.90;;;;;;5013677;28;20112;-80
2021/08/30 07:35:16;;;;;;;5.15;2.88;;;14.30;99.90;;;;;;4990535;28;20041;-80
2021/08/30 07:37:42;;;;;;;2.70;2.45;;;14.30;99.90;;;;;;4994151;28;20695;-80
2021/08/30 07:40:08;;;;;;;3.67;2.65;;;14.30;99.90;;;;;;5012841;28;20121;-80
2021/08/30 07:42:34;;;;;;;3.58;2.55;;;14.30;99.90;;;;;;4982448;28;20037;-80
2021/08/30 07:45:00;;;;;;;3.95;2.17;;;14.30;99.90;;;;;;5011953;28;20018;-81
2021/08/30 07:47:26;;;;;;;2.53;2.00;;;14.30;99.90;;;;;;5025161;28;20361;-80
2021/08/30 07:49:53;;;;;;;2.80;2.50;;;14.40;99.90;;;;;;5014615;28;20124;-80
2021/08/30 07:52:20;;;;;;;2.85;2.45;;;14.40;99.90;;;;;;5040481;28;20034;-80
2021/08/30 07:54:47;;;;;;;2.60;2.30;;;14.40;99.90;;;;;;5004942;28;20075;-80
2021/08/30 07:57:13;;;;;;;2.20;2.00;;;14.50;99.90;;;;;;5015632;28;20040;-82
2021/08/30 07:59:38;;;;;;;2.35;2.15;;;14.50;99.90;;;;;;5014282;28;20038;-81
2021/08/30 08:02:04;;;;;;;2.42;2.20;;;14.50;99.90;;;;;;5010186;28;20099;-80
2021/08/30 08:04:30;;;;;;;2.45;2.25;;;14.50;99.90;;;;;;4996396;28;20041;-80
2021/08/30 08:06:56;;;;;;;2.85;2.55;;;14.50;99.90;;;;;;4983526;28;20022;-80
2021/08/30 08:09:21;;;;;;;2.30;2.10;;;14.50;99.90;;;;;;5007862;28;20033;-80
2021/08/30 08:11:47;;;;;;;2.30;2.10;;;14.50;99.90;;;;;;4996782;28;20034;-80
2021/08/30 08:14:14;;;;;;;2.22;1.98;;;14.50;99.90;;;;;;5013724;28;20042;-80
2021/08/30 08:16:40;;;;;;;3.22;2.67;;;14.60;99.90;;;;;;5026551;28;20033;-80
2021/08/30 08:19:06;;;;;;;2.13;1.92;;;14.60;99.90;;;;;;4991392;28;20091;-80
2021/08/30 08:21:33;;;;;;;2.53;2.33;;;14.70;99.90;;;;;;4990725;28;20037;-81
2021/08/30 08:24:00;;;;;;;3.53;2.30;;;14.80;99.90;;;;;;5014908;28;20033;-82
2021/08/30 08:26:26;;;;;;;2.55;2.35;;;14.90;99.90;;;;;;5006602;28;20056;-80
2021/08/30 08:28:52;;;;;;;3.20;2.55;;;15.00;99.90;;;;;;5034192;28;20448;-80
2021/08/30 08:31:17;;;;;;;2.65;2.42;;;15.10;99.90;;;;;;5008720;28;20034;-80
2021/08/30 08:33:44;;;;;;;1.48;1.30;;;15.20;99.90;;;;;;4991621;28;20104;-79
2021/08/30 08:36:10;;;;;;;1.65;1.55;;;15.30;99.90;;;;;;4988332;28;20048;-80
2021/08/30 08:38:36;;;;;;;1.95;1.70;;;15.50;99.90;;;;;;5031867;28;20021;-80
2021/08/30 08:41:02;;;;;;;1.77;1.60;;;15.60;99.90;;;;;;5018148;28;20025;-79
2021/08/30 08:43:28;;;;;;;1.33;1.23;;;15.80;99.90;;;;;;5035561;28;20475;-81
2021/08/30 08:45:54;;;;;;;1.90;0.90;;;15.90;99.90;;;;;;4997669;28;20076;-80
2021/08/30 08:48:21;;;;;;;1.20;1.10;;;15.90;99.90;;;;;;4998781;28;20033;-80
2021/08/30 08:50:48;;;;;;;1.42;1.33;;;15.90;99.90;;;;;;4999366;28;20495;-79
2021/08/30 08:53:13;;;;;;;1.98;0.95;;;15.80;99.90;;;;;;5013743;28;20555;-80
2021/08/30 08:55:39;;;;;;;1.75;0.90;;;15.80;99.90;;;;;;4994439;28;20128;-80
2021/08/30 08:58:08;;;;;;;0.88;0.88;;;15.80;99.90;;;;;;5011773;28;20060;-79
2021/08/30 09:00:35;;;;;;;0.70;0.70;;;15.70;99.90;;;;;;5038915;28;20029;-80
2021/08/30 09:03:01;;;;;;;0.65;0.65;;;15.70;99.90;;;;;;4994770;28;20538;-80
2021/08/30 09:05:26;;;;;;;1.05;0.88;;;15.70;99.90;;;;;;4999932;28;20117;-80
2021/08/30 09:07:54;;;;;;;0.70;0.70;;;15.80;99.90;;;;;;4985145;28;20117;-79
2021/08/30 09:10:24;;;;;;;1.00;0.90;;;15.90;99.90;;;;;;5023686;28;20510;-80
2021/08/30 09:12:51;;;;;;;2.53;0.82;;;16.00;99.90;;;;;;5009247;28;20064;-79
2021/08/30 09:15:26;;;;;;;0.73;0.73;;;16.10;99.90;;;;;;4980211;28;20037;-79
2021/08/30 09:17:57;;;;;;;0.82;0.82;;;16.20;99.90;;;;;;4998749;28;20444;-80
2021/08/30 09:20:25;;;;;;;0.60;0.60;;;16.30;99.90;;;;;;5011919;28;20144;-81
2021/08/30 09:22:52;;;;;;;1.23;0.65;;;16.20;99.90;;;;;;4981673;28;20034;-80
2021/08/30 09:25:19;;;;;;;0.70;0.70;;;16.20;99.90;;;;;;5014932;28;20037;-79
2021/08/30 09:27:51;;;;;;;0.88;0.65;;;16.20;99.90;;;;;;4992503;28;20040;-79
2021/08/30 09:30:23;;;;;;;0.60;0.60;;;16.20;99.90;;;;;;5017124;28;20030;-79
2021/08/30 09:32:49;;;;;;;0.70;0.68;;;16.30;99.90;;;;;;5028015;28;20052;-79
2021/08/30 09:35:16;;;;;;;0.50;0.50;;;16.20;99.90;;;;;;5014795;28;20604;-79
2021/08/30 09:37:44;;;;;;;0.50;0.50;;;16.10;99.90;;;;;;5020160;28;20026;-80
2021/08/30 09:40:15;;;;;;;1.48;0.70;;;16.10;99.90;;;;;;4996649;28;20134;-79
2021/08/30 09:42:49;;;;;;;0.55;0.55;;;16.20;99.90;;;;;;5007457;28;20034;-78
2021/08/30 09:45:17;;;;;;;0.97;0.97;;;16.20;99.90;;;;;;5012276;28;20030;-79
2021/08/30 09:47:55;;;;;;;0.50;0.50;;;16.30;99.90;;;;;;4997248;28;20363;-79
2021/08/30 09:50:42;;;;;;;0.52;0.52;;;16.50;99.90;;;;;;5003534;28;20045;-80
2021/08/30 09:53:08;;;;;;;0.60;0.60;;;16.60;99.90;;;;;;4995664;28;20073;-80
2021/08/30 09:55:35;;;;;;;0.50;0.50;;;16.50;99.90;;;;;;4985768;28;20053;-80
2021/08/30 09:58:02;;;;;;;0.75;0.68;;;16.50;99.90;;;;;;5017974;28;20026;-79
2021/08/30 10:00:29;;;;;;;0.43;0.43;;;16.50;99.90;;;;;;5004374;28;20056;-80
2021/08/30 10:02:59;;;;;;;0.60;0.60;;;16.50;99.90;;;;;;5003853;28;20022;-80
2021/08/30 10:05:28;;;;;;;0.73;0.50;;;16.60;99.90;;;;;;4985840;28;20034;-79
2021/08/30 10:07:53;;;;;;;0.60;0.60;;;16.70;99.90;;;;;;5013661;28;20037;-82
2021/08/30 10:10:22;;;;;;;0.70;0.70;;;16.80;99.90;;;;;;5000864;28;20042;-80
2021/08/30 10:12:48;;;;;;;0.73;0.73;;;17.00;99.90;;;;;;5009450;28;20507;-81
2021/08/30 10:15:19;;;;;;;0.70;0.70;;;17.00;99.90;;;;;;4996608;28;20487;-82
2021/08/30 10:17:49;;;;;;;0.70;0.70;;;17.00;99.90;;;;;;5004939;28;20038;-81
2021/08/30 10:20:22;;;;;;;1.00;0.90;;;17.00;99.90;;;;;;4990368;28;20040;-81
2021/08/30 10:23:05;;;;;;;2.58;1.30;;;17.00;99.90;;;;;;5010589;28;20036;-81
2021/08/30 10:25:33;;;;;;;0.90;0.90;;;17.00;99.90;;;;;;5021173;23;20035;-80
2021/08/30 10:28:01;;;;;;;1.40;1.23;;;17.10;99.90;;;;;;5029509;28;20024;-81
2021/08/30 10:30:28;;;;;;;2.90;2.30;;;17.10;99.90;;;;;;5033734;28;20025;-80
2021/08/30 10:32:59;;;;;;;1.63;1.50;;;17.10;99.90;;;;;;5026099;28;20045;-80
2021/08/30 10:35:31;;;;;;;1.70;1.58;;;17.10;99.90;;;;;;5049894;28;20052;-80
2021/08/30 10:38:17;;;;;;;1.60;1.50;;;17.10;99.90;;;;;;5036367;28;20044;-80
2021/08/30 10:40:46;;;;;;;;;;;17.00;99.90;;;;;;5016198;28;20498;-81
2021/08/30 10:43:14;;;;;;;3.22;2.10;;;17.00;99.90;;;;;;5027141;28;19916;-81
2021/08/30 10:45:58;;;;;;;2.45;2.25;;;16.80;99.90;;;;;;5052312;28;20032;-80
2021/08/30 10:48:39;;;;;;;3.15;1.95;;;16.70;99.90;;;;;;5035599;28;20065;-81
2021/08/30 10:51:25;;;;;;;2.58;1.90;;;16.70;99.90;;;;;;5031983;28;20040;-81
2021/08/30 10:54:00;;;;;;;2.17;1.98;;;16.60;99.90;;;;;;5021839;28;20036;-81
2021/08/30 10:56:28;;;;;;;3.05;2.17;;;16.50;99.90;;;;;;5014321;28;20061;-81
2021/08/30 10:58:57;;;;;;;2.90;2.60;;;16.40;99.90;;;;;;5034675;28;20494;-81
2021/08/30 11:01:23;;;;;;;2.75;2.53;;;16.40;99.90;;;;;;5016449;28;20087;-81
2021/08/30 11:03:59;;;;;;;3.10;2.80;;;16.40;99.90;;;;;;5035414;28;20029;-81
2021/08/30 11:06:25;;;;;;;;;;;16.40;99.90;;;;;;5035019;28;20031;-81
2021/08/30 11:08:51;;;;;;;4.18;2.78;;;16.30;99.90;;;;;;5053107;28;20435;-80
2021/08/30 11:11:21;;;;;;;3.10;2.80;;;16.30;99.90;;;;;;5034179;28;20037;-80
2021/08/30 11:14:04;;;;;;;3.60;2.85;;;16.40;99.90;;;;;;5020890;28;20380;-80
2021/08/30 11:16:31;;;;;;;3.55;3.08;;;16.50;99.90;;;;;;5016010;28;20033;-80
2021/08/30 11:19:00;;;;;;;3.20;2.70;;;16.60;99.90;;;;;;5053445;28;20021;-81
2021/08/30 11:21:33;;;;;;;2.70;2.30;;;16.80;99.90;;;;;;5016080;28;20044;-82
2021/08/30 11:23:59;;;;;;;2.03;1.83;;;16.90;99.90;;;;;;5035040;28;20117;-80
2021/08/30 11:26:24;;;;;;;2.45;2.25;;;17.00;99.90;;;;;;5029847;28;20469;-81
2021/08/30 11:29:02;;;;;;;2.00;1.80;;;17.00;99.90;;;;;;5015419;28;20052;-81
2021/08/30 11:31:30;;;;;;;2.33;2.00;;;17.00;99.90;;;;;;5025750;28;20052;-80
2021/08/30 11:33:57;;;;;;;5.45;2.55;;;17.10;99.90;;;;;;5014376;28;20037;-80
2021/08/30 11:36:23;;;;;;;2.47;2.08;;;17.20;99.90;;;;;;5003263;28;20506;-80
2021/08/30 11:38:57;;;;;;;2.60;2.40;;;17.40;99.90;;;;;;5052664;28;20395;-80
2021/08/30 11:41:23;;;;;;;2.42;2.15;;;17.50;99.90;;;;;;5045234;28;20025;-80
2021/08/30 11:44:01;;;;;;;4.40;1.60;;;17.70;99.90;;;;;;5045208;28;20025;-80
2021/08/30 11:46:27;;;;;;;2.03;1.80;;;17.80;99.90;;;;;;5018058;28;20021;-80
2021/08/30 11:48:57;;;;;;;2.88;2.17;;;17.90;99.90;;;;;;5014897;28;20029;-80
2021/08/30 11:51:26;;;;;;;2.20;1.88;;;18.00;99.90;;;;;;5049912;28;20035;-79
2021/08/30 11:53:52;;;;;;;2.20;2.00;;;18.10;99.90;;;;;;5013646;28;20034;-80
2021/08/30 11:56:21;;;;;;;2.13;1.85;;;18.30;99.90;;;;;;5030614;28;20386;-80
2021/08/30 11:58:47;;;;;;;1.70;1.60;;;18.30;99.90;;;;;;5034490;28;20025;-80
2021/08/30 12:01:17;;;;;;;1.70;1.52;;;18.30;99.90;;;;;;5028138;28;20555;-80
2021/08/30 12:03:44;;;;;;;1.75;1.65;;;18.40;99.90;;;;;;5025131;28;20021;-80
2021/08/30 12:06:17;;;;;;;1.60;1.50;;;18.30;99.90;;;;;;5034106;28;20118;-80
2021/08/30 12:08:50;;;;;;;1.52;1.42;;;18.30;99.90;;;;;;5032451;28;20390;-80
2021/08/30 12:11:18;;;;;;;1.60;1.50;;;18.30;99.90;;;;;;5033723;28;20036;-80
2021/08/30 12:13:55;;;;;;;1.70;1.52;;;18.20;99.90;;;;;;5039333;28;20037;-80
2021/08/30 12:16:23;;;;;;;1.30;1.20;;;18.20;99.90;;;;;;5033657;28;20036;-80
2021/08/30 12:18:50;;;;;;;1.80;1.50;;;18.10;99.90;;;;;;5034419;28;20108;-80
2021/08/30 12:21:30;;;;;;;1.58;1.48;;;18.10;99.90;;;;;;5043284;28;20095;-80
2021/08/30 12:23:56;;;;;;;1.42;1.30;;;18.20;99.90;;;;;;5017559;28;20017;-80
2021/08/30 12:26:22;;;;;;;1.10;1.10;;;18.30;99.90;;;;;;5000930;28;20478;-80
2021/08/30 12:28:55;;;;;;;1.40;1.27;;;18.30;99.90;;;;;;5028366;28;20044;-80
2021/08/30 12:31:32;;;;;;;2.47;1.40;;;18.20;99.90;;;;;;5033165;28;20037;-80
2021/08/30 12:34:09;;;;;;;2.47;1.40;;;18.20;99.90;;;;;;5001484;28;20037;-80
2021/08/30 12:36:36;;;;;;;1.75;1.30;;;18.20;99.90;;;;;;5026947;28;20056;-80
2021/08/30 12:39:04;;;;;;;1.60;1.33;;;18.30;99.90;;;;;;5033608;28;20040;-80
2021/08/30 12:41:30;;;;;;;1.88;1.48;;;18.20;99.90;;;;;;5043553;28;20026;-80
2021/08/30 12:43:56;;;;;;;1.38;1.27;;;18.10;99.90;;;;;;5029917;28;20032;-80
2021/08/30 12:46:22;;;;;;;1.52;1.40;;;18.00;99.90;;;;;;5011243;28;20029;-80
2021/08/30 12:48:48;;;;;;;2.72;1.35;;;17.90;99.90;;;;;;5031540;28;20043;-80
2021/08/30 12:51:14;;;;;;;1.65;1.55;;;18.00;99.90;;;;;;5016568;28;20477;-80
2021/08/30 12:53:41;;;;;;;1.30;1.20;;;18.00;99.90;;;;;;5046030;28;20055;-80
2021/08/30 12:56:08;;;;;;;2.75;1.13;;;17.90;99.90;;;;;;5021868;28;20040;-80
2021/08/30 12:58:34;;;;;;;1.90;1.60;;;17.90;99.90;;;;;;5051258;28;20032;-80